createdAt,value
2023-03-21T00:00:42.119Z,99235.53
2023-03-21T00:03:09.228Z,99240.09
2023-03-21T00:05:41.845Z,99233.63
2023-03-21T00:08:09.078Z,99224.00
2023-03-21T00:10:43.611Z,99223.16
2023-03-21T00:13:15.785Z,99225.34
2023-03-21T00:18:46.641Z,99226.25
2023-03-21T00:24:08.134Z,99222.38
2023-03-21T00:26:35.638Z,99229.97
2023-03-21T00:29:02.667Z,99227.50
2023-03-21T00:31:29.422Z,99229.91
2023-03-21T00:33:56.974Z,99228.81
2023-03-21T00:36:26.067Z,99229.38
2023-03-21T00:38:53.388Z,99222.03
2023-03-21T00:41:38.752Z,99226.66
2023-03-21T00:44:07.230Z,99223.91
2023-03-21T00:46:43.973Z,99214.09
2023-03-21T00:49:16.322Z,99228.81
2023-03-21T00:51:43.782Z,99217.06
2023-03-21T00:54:13.052Z,99227.22
2023-03-21T00:56:41.243Z,99219.06
2023-03-21T00:59:08.310Z,99213.31
2023-03-21T01:01:36.450Z,99216.19
2023-03-21T01:04:10.917Z,99202.63
2023-03-21T01:06:39.609Z,99214.38
2023-03-21T01:09:23.954Z,99210.88
2023-03-21T01:11:51.879Z,99203.34
2023-03-21T01:14:23.575Z,99210.88
2023-03-21T01:16:53.982Z,99202.34
2023-03-21T01:19:38.014Z,99192.78
2023-03-21T01:22:11.476Z,99198.47
2023-03-21T01:24:46.835Z,99182.09
2023-03-21T01:27:19.759Z,99189.88
2023-03-21T01:29:48.773Z,99186.00
2023-03-21T01:32:15.640Z,99181.81
2023-03-21T01:34:42.723Z,99178.78
2023-03-21T01:37:09.591Z,99193.75
2023-03-21T01:39:43.659Z,99196.19
2023-03-21T01:42:14.375Z,99167.16
2023-03-21T01:44:59.488Z,99165.94
2023-03-21T01:47:34.936Z,99154.63
2023-03-21T01:50:17.212Z,99147.75
2023-03-21T01:52:55.274Z,99152.69
2023-03-21T01:55:28.809Z,99160.53
2023-03-21T01:58:10.413Z,99153.66
2023-03-21T02:00:56.953Z,99146.84
2023-03-21T02:03:38.723Z,99157.16
2023-03-21T02:06:34.123Z,99177.63
2023-03-21T02:09:26.121Z,99175.75
2023-03-21T02:11:54.947Z,99151.38
2023-03-21T02:14:29.235Z,99150.63
2023-03-21T02:17:24.502Z,99142.44
2023-03-21T02:19:59.226Z,99140.38
2023-03-21T02:22:42.062Z,99161.22
2023-03-21T02:25:22.483Z,99161.28
2023-03-21T02:27:59.756Z,99161.59
2023-03-21T02:30:52.074Z,99166.25
2023-03-21T02:33:58.036Z,99141.47
2023-03-21T02:36:34.046Z,99156.84
2023-03-21T02:39:27.117Z,99130.25
2023-03-21T02:42:13.230Z,99133.06
2023-03-21T02:44:46.566Z,99138.69
2023-03-21T02:47:22.898Z,99106.00
2023-03-21T02:50:03.724Z,99122.47
2023-03-21T02:52:39.470Z,99134.22
2023-03-21T02:55:15.620Z,99137.34
2023-03-21T02:58:06.855Z,99120.53
2023-03-21T03:00:38.926Z,99112.19
2023-03-21T03:03:10.459Z,99124.25
2023-03-21T03:05:48.216Z,99132.16
2023-03-21T03:08:43.150Z,99135.72
2023-03-21T03:11:26.272Z,99125.28
2023-03-21T03:14:35.848Z,99127.72
2023-03-21T03:17:23.384Z,99118.19
2023-03-21T03:20:16.833Z,99108.13
2023-03-21T03:23:08.543Z,99152.28
2023-03-21T03:25:49.541Z,99156.28
2023-03-21T03:28:28.124Z,99146.28
2023-03-21T03:31:08.680Z,99144.34
2023-03-21T03:33:52.910Z,99140.16
2023-03-21T03:36:32.080Z,99139.78
2023-03-21T03:39:09.149Z,99128.16
2023-03-21T03:44:38.107Z,99164.56
2023-03-21T03:47:15.116Z,99163.28
2023-03-21T03:49:56.736Z,99171.44
2023-03-21T03:52:32.536Z,99128.09
2023-03-21T03:55:06.116Z,99153.38
2023-03-21T03:57:37.067Z,99160.25
2023-03-21T04:00:11.878Z,99169.28
2023-03-21T04:02:45.264Z,99170.63
2023-03-21T04:05:16.078Z,99172.63
2023-03-21T04:07:42.923Z,99158.13
2023-03-21T04:10:10.663Z,99170.63
2023-03-21T04:12:41.522Z,99175.88
2023-03-21T04:15:40.248Z,99157.81
2023-03-21T04:18:13.953Z,99161.75
2023-03-21T04:20:41.021Z,99157.38
2023-03-21T04:23:08.537Z,99167.47
2023-03-21T04:25:38.675Z,99162.63
2023-03-21T04:28:07.666Z,99176.47
2023-03-21T04:31:08.762Z,99169.56
2023-03-21T04:33:48.078Z,99180.22
2023-03-21T04:36:25.234Z,99158.34
2023-03-21T04:38:54.970Z,99151.97
2023-03-21T04:41:21.958Z,99155.81
2023-03-21T04:43:49.857Z,99159.97
2023-03-21T04:46:16.968Z,99156.06
2023-03-21T04:48:44.111Z,99142.00
2023-03-21T04:51:11.461Z,99158.41
2023-03-21T04:53:39.704Z,99161.22
2023-03-21T04:56:07.196Z,99161.88
2023-03-21T04:58:34.590Z,99135.72
2023-03-21T05:01:02.650Z,99129.19
2023-03-21T05:03:30.659Z,99146.88
2023-03-21T05:05:58.301Z,99168.16
2023-03-21T05:08:25.549Z,99159.47
2023-03-21T05:10:52.761Z,99160.56
2023-03-21T05:13:20.943Z,99159.53
2023-03-21T05:15:49.106Z,99169.72
2023-03-21T05:18:25.043Z,99164.75
2023-03-21T05:21:08.046Z,99159.78
2023-03-21T05:23:38.471Z,99167.94
2023-03-21T05:26:07.858Z,99168.56
2023-03-21T05:28:41.562Z,99164.50
2023-03-21T05:31:09.078Z,99156.09
2023-03-21T05:33:36.064Z,99157.25
2023-03-21T05:36:03.204Z,99148.09
2023-03-21T05:38:31.887Z,99152.69
2023-03-21T05:40:59.294Z,99154.69
2023-03-21T05:43:26.732Z,99160.78
2023-03-21T05:45:53.840Z,99157.44
2023-03-21T05:48:21.163Z,99144.94
2023-03-21T05:51:08.919Z,99156.13
2023-03-21T05:53:35.947Z,99158.56
2023-03-21T05:56:03.448Z,99173.28
2023-03-21T05:58:45.393Z,99168.50
2023-03-21T06:01:12.746Z,99156.22
2023-03-21T06:03:43.885Z,99160.06
2023-03-21T06:06:16.646Z,99165.53
2023-03-21T06:08:55.185Z,99162.97
2023-03-21T06:11:29.763Z,99152.06
2023-03-21T06:14:29.049Z,99144.75
2023-03-21T06:17:22.160Z,99148.63
2023-03-21T06:19:54.577Z,99158.19
2023-03-21T06:22:28.949Z,99157.94
2023-03-21T06:24:55.728Z,99144.94
2023-03-21T06:27:23.128Z,99149.50
2023-03-21T06:29:53.629Z,99140.81
2023-03-21T06:32:21.468Z,99148.19
2023-03-21T06:34:52.212Z,99161.25
2023-03-21T06:37:19.962Z,99164.84
2023-03-21T06:39:47.132Z,99158.06
2023-03-21T06:42:14.896Z,99159.34
2023-03-21T06:44:42.152Z,99170.34
2023-03-21T06:47:13.487Z,99170.81
2023-03-21T06:49:43.882Z,99165.50
2023-03-21T06:52:12.854Z,99153.84
2023-03-21T06:54:40.763Z,99178.06
2023-03-21T06:57:13.807Z,99185.88
2023-03-21T06:59:44.061Z,99186.25
2023-03-21T07:02:16.921Z,99189.22
2023-03-21T07:05:06.941Z,99181.47
2023-03-21T07:07:34.101Z,99182.88
2023-03-21T07:10:01.253Z,99192.03
2023-03-21T07:12:34.573Z,99184.63
2023-03-21T07:15:34.796Z,99188.25
2023-03-21T07:18:01.814Z,99177.59
2023-03-21T07:20:53.932Z,99192.69
2023-03-21T07:23:23.244Z,99191.88
2023-03-21T07:25:51.649Z,99180.69
2023-03-21T07:28:19.295Z,99198.38
2023-03-21T07:30:51.799Z,99193.19
2023-03-21T07:33:19.922Z,99184.59
2023-03-21T07:35:47.162Z,99182.81
2023-03-21T07:38:16.876Z,99168.53
2023-03-21T07:40:44.832Z,99187.97
2023-03-21T07:43:11.753Z,99181.00
2023-03-21T07:45:42.834Z,99191.19
2023-03-21T07:48:10.959Z,99189.22
2023-03-21T07:50:38.084Z,99191.16
2023-03-21T07:53:07.341Z,99183.38
2023-03-21T07:55:35.233Z,99189.84
2023-03-21T07:58:05.930Z,99201.22
2023-03-21T08:00:33.227Z,99190.03
2023-03-21T08:03:00.497Z,99195.47
2023-03-21T08:05:35.580Z,99201.97
2023-03-21T08:08:03.409Z,99204.19
2023-03-21T08:10:30.584Z,99187.91
2023-03-21T08:12:57.640Z,99187.66
2023-03-21T08:15:24.955Z,99184.97
2023-03-21T08:17:52.356Z,99192.28
2023-03-21T08:20:22.069Z,99194.50
2023-03-21T08:22:50.532Z,99194.84
2023-03-21T08:25:20.542Z,99200.34
2023-03-21T08:27:48.371Z,99183.41
2023-03-21T08:30:18.645Z,99193.38
2023-03-21T08:32:45.430Z,99186.69
2023-03-21T08:35:16.247Z,99189.44
2023-03-21T08:37:43.834Z,99175.38
2023-03-21T08:40:14.365Z,99184.16
2023-03-21T08:42:41.986Z,99191.56
2023-03-21T08:45:10.607Z,99182.94
2023-03-21T08:47:37.931Z,99185.19
2023-03-21T08:50:09.772Z,99175.03
2023-03-21T08:52:37.263Z,99171.56
2023-03-21T08:55:05.269Z,99172.38
2023-03-21T08:57:32.306Z,99174.19
2023-03-21T08:59:59.539Z,99177.31
2023-03-21T09:02:27.143Z,99173.94
2023-03-21T09:04:55.097Z,99168.00
2023-03-21T09:07:22.296Z,99155.09
2023-03-21T09:10:08.188Z,99156.44
2023-03-21T09:12:39.370Z,99161.19
2023-03-21T09:15:07.701Z,99156.75
2023-03-21T09:17:34.845Z,99148.97
2023-03-21T09:20:08.660Z,99147.84
2023-03-21T09:22:35.630Z,99145.91
2023-03-21T09:25:02.988Z,99150.81
2023-03-21T09:27:30.569Z,99153.16
2023-03-21T09:29:57.717Z,99151.09
2023-03-21T09:32:25.261Z,99150.00
2023-03-21T09:34:53.216Z,99143.13
2023-03-21T09:37:21.394Z,99153.84
2023-03-21T09:39:52.047Z,99143.13
2023-03-21T09:42:50.600Z,99147.00
2023-03-21T09:45:44.734Z,99137.13
2023-03-21T09:48:31.848Z,99143.94
2023-03-21T09:50:59.710Z,99142.66
2023-03-21T09:53:33.470Z,99149.91
2023-03-21T09:56:02.240Z,99153.66
2023-03-21T09:58:36.676Z,99151.31
2023-03-21T10:01:22.269Z,99146.75
2023-03-21T10:03:54.368Z,99144.19
2023-03-21T10:06:28.737Z,99136.78
2023-03-21T10:09:07.385Z,99123.16
2023-03-21T10:11:45.013Z,99112.56
2023-03-21T10:14:21.300Z,99132.78
2023-03-21T10:16:52.433Z,99117.31
2023-03-21T10:19:20.630Z,99123.97
2023-03-21T10:22:01.372Z,99125.25
2023-03-21T10:24:33.291Z,99116.66
2023-03-21T10:27:01.768Z,99119.22
2023-03-21T10:29:46.610Z,99099.94
2023-03-21T10:32:17.646Z,99130.94
2023-03-21T10:37:24.938Z,99115.47
2023-03-21T10:39:56.099Z,99108.50
2023-03-21T10:42:26.556Z,99106.63
2023-03-21T10:44:57.458Z,99097.25
2023-03-21T10:47:28.236Z,99092.00
2023-03-21T10:50:11.589Z,99092.56
2023-03-21T10:52:50.536Z,99095.84
2023-03-21T10:55:28.725Z,99089.75
2023-03-21T10:58:08.796Z,99085.50
2023-03-21T11:00:39.442Z,99089.63
2023-03-21T11:03:07.501Z,99082.69
2023-03-21T11:05:44.262Z,99087.53
2023-03-21T11:08:18.256Z,99087.41
2023-03-21T11:10:59.916Z,99087.22
2023-03-21T11:13:34.289Z,99080.00
2023-03-21T11:16:10.348Z,99084.81
2023-03-21T11:18:43.728Z,99082.16
2023-03-21T11:21:13.404Z,99082.66
2023-03-21T11:23:45.562Z,99076.69
2023-03-21T11:26:19.653Z,99060.84
2023-03-21T11:28:47.187Z,99065.50
2023-03-21T11:31:14.405Z,99062.44
2023-03-21T11:33:51.875Z,99052.19
2023-03-21T11:36:18.755Z,99061.47
2023-03-21T11:38:53.590Z,99055.47
2023-03-21T11:41:24.719Z,99050.38
2023-03-21T11:43:53.188Z,99055.63
2023-03-21T11:46:25.790Z,99055.63
2023-03-21T11:48:53.204Z,99050.81
2023-03-21T11:51:35.418Z,99053.19
2023-03-21T11:54:20.900Z,99058.22
2023-03-21T11:56:54.802Z,99051.66
2023-03-21T11:59:39.880Z,99060.25
2023-03-21T12:02:16.748Z,99052.91
2023-03-21T12:04:48.978Z,99050.78
2023-03-21T12:07:24.973Z,99049.88
2023-03-21T12:10:09.840Z,99040.09
2023-03-21T12:12:48.885Z,99053.59
2023-03-21T12:15:27.920Z,99045.34
2023-03-21T12:18:25.113Z,99044.06
2023-03-21T12:20:58.847Z,99050.16
2023-03-21T12:23:58.264Z,99038.63
2023-03-21T12:26:39.241Z,99044.50
2023-03-21T12:29:39.367Z,99046.09
2023-03-21T12:32:29.529Z,99044.97
2023-03-21T12:35:24.526Z,99040.13
2023-03-21T12:37:58.041Z,99032.00
2023-03-21T12:40:49.585Z,99028.09
2023-03-21T12:43:27.412Z,99030.44
2023-03-21T12:45:59.975Z,99002.47
2023-03-21T12:48:52.665Z,99016.09
2023-03-21T12:51:24.267Z,99011.59
2023-03-21T12:54:03.296Z,99010.41
2023-03-21T12:57:02.314Z,99008.72
2023-03-21T12:59:50.457Z,98993.38
2023-03-21T13:02:34.341Z,99010.16
2023-03-21T13:05:21.903Z,99001.75
2023-03-21T13:07:58.114Z,98998.75
2023-03-21T13:10:25.312Z,98997.16
2023-03-21T13:13:13.761Z,98999.50
2023-03-21T13:15:55.720Z,98990.25
2023-03-21T13:18:53.992Z,98994.69
2023-03-21T13:21:43.725Z,98990.63
2023-03-21T13:24:49.484Z,98993.72
2023-03-21T13:27:35.494Z,98986.69
2023-03-21T13:30:08.868Z,98986.66
2023-03-21T13:32:39.520Z,98991.31
2023-03-21T13:35:09.966Z,98985.00
2023-03-21T13:37:42.099Z,98971.28
2023-03-21T13:40:39.874Z,98954.34
2023-03-21T13:43:44.888Z,98976.78
2023-03-21T13:46:13.531Z,98976.34
2023-03-21T13:48:58.509Z,98973.03
2023-03-21T13:51:29.518Z,98973.09
2023-03-21T13:54:18.337Z,98906.44
2023-03-21T13:56:46.075Z,98962.59
2023-03-21T13:59:14.334Z,98957.66
2023-03-21T14:01:58.294Z,98960.50
2023-03-21T14:04:41.934Z,98939.75
2023-03-21T14:07:21.883Z,98936.94
2023-03-21T14:10:28.280Z,98949.56
2023-03-21T14:12:55.988Z,98934.13
2023-03-21T14:15:55.055Z,98951.66
2023-03-21T14:18:52.196Z,98948.06
2023-03-21T14:21:24.853Z,98951.44
2023-03-21T14:24:07.152Z,98944.56
2023-03-21T14:26:42.552Z,98943.97
2023-03-21T14:29:25.486Z,98946.28
2023-03-21T14:31:56.417Z,98953.31
2023-03-21T14:34:26.133Z,98945.75
2023-03-21T14:36:58.223Z,98956.13
2023-03-21T14:39:31.253Z,98944.19
2023-03-21T14:42:10.243Z,98956.41
2023-03-21T14:44:54.307Z,98952.81
2023-03-21T14:47:24.745Z,98940.25
2023-03-21T14:49:52.262Z,98936.75
2023-03-21T14:52:30.536Z,98926.66
2023-03-21T14:54:58.586Z,98930.97
2023-03-21T14:57:29.671Z,98929.13
2023-03-21T15:00:00.455Z,98916.25
2023-03-21T15:02:33.890Z,98928.91
2023-03-21T15:05:15.468Z,98929.66
2023-03-21T15:07:42.532Z,98925.09
2023-03-21T15:10:21.233Z,98894.16
2023-03-21T15:13:02.624Z,98923.22
2023-03-21T15:15:31.839Z,98912.84
2023-03-21T15:18:05.311Z,98905.03
2023-03-21T15:20:36.004Z,98912.41
2023-03-21T15:23:28.526Z,98935.16
2023-03-21T15:25:56.032Z,98934.72
2023-03-21T15:28:23.014Z,98921.56
2023-03-21T15:30:52.065Z,98925.13
2023-03-21T15:33:20.702Z,98916.22
2023-03-21T15:35:55.752Z,98920.50
2023-03-21T15:38:41.107Z,98917.53
2023-03-21T15:41:20.306Z,98914.75
2023-03-21T15:43:49.231Z,98918.81
2023-03-21T15:46:31.054Z,98909.59
2023-03-21T15:49:27.764Z,98910.53
2023-03-21T15:51:59.598Z,98914.66
2023-03-21T15:54:31.066Z,98914.94
2023-03-21T15:57:01.372Z,98924.31
2023-03-21T15:59:33.533Z,98922.81
2023-03-21T16:02:00.804Z,98918.06
2023-03-21T16:04:27.793Z,98926.75
2023-03-21T16:07:01.501Z,98923.44
2023-03-21T16:09:39.222Z,98923.09
2023-03-21T16:12:14.051Z,98914.84
2023-03-21T16:14:42.827Z,98927.81
2023-03-21T16:17:28.756Z,98926.22
2023-03-21T16:19:56.049Z,98919.13
2023-03-21T16:22:23.227Z,98910.63
2023-03-21T16:24:50.327Z,98910.00
2023-03-21T16:27:19.645Z,98920.91
2023-03-21T16:29:46.780Z,98913.59
2023-03-21T16:32:18.528Z,98910.72
2023-03-21T16:34:46.387Z,98907.75
2023-03-21T16:37:16.401Z,98908.66
2023-03-21T16:39:43.294Z,98909.19
2023-03-21T16:42:16.430Z,98912.22
2023-03-21T16:44:43.205Z,98913.38
2023-03-21T16:47:35.090Z,98914.88
2023-03-21T16:50:02.033Z,98922.28
2023-03-21T16:52:29.228Z,98928.88
2023-03-21T16:57:37.878Z,98941.38
2023-03-21T17:00:16.839Z,98939.06
2023-03-21T17:02:44.061Z,98934.06
2023-03-21T17:05:11.645Z,98942.38
2023-03-21T17:07:39.089Z,98942.16
2023-03-21T17:10:32.312Z,98917.75
2023-03-21T17:12:59.695Z,98937.34
2023-03-21T17:15:26.689Z,98932.91
2023-03-21T17:17:55.912Z,98934.31
2023-03-21T17:20:25.098Z,98932.44
2023-03-21T17:22:56.350Z,98944.41
2023-03-21T17:25:31.599Z,98955.06
2023-03-21T17:28:01.674Z,98943.53
2023-03-21T17:30:40.194Z,98957.97
2023-03-21T17:33:08.058Z,98950.00
2023-03-21T17:35:35.167Z,98947.63
2023-03-21T17:38:02.382Z,98953.94
2023-03-21T17:40:32.215Z,98955.84
2023-03-21T17:43:01.391Z,98957.47
2023-03-21T17:45:28.390Z,98951.47
2023-03-21T17:47:55.658Z,98962.09
2023-03-21T17:50:26.072Z,98959.09
2023-03-21T17:52:53.251Z,98958.38
2023-03-21T17:55:21.423Z,98974.19
2023-03-21T17:57:49.610Z,98958.38
2023-03-21T18:00:23.099Z,98946.41
2023-03-21T18:02:51.224Z,98965.31
2023-03-21T18:05:18.927Z,98961.59
2023-03-21T18:10:33.489Z,98971.75
2023-03-21T18:13:00.850Z,98961.97
2023-03-21T18:15:30.522Z,98957.94
2023-03-21T18:17:58.430Z,98962.97
2023-03-21T18:20:50.430Z,98973.38
2023-03-21T18:23:18.841Z,98977.53
2023-03-21T18:25:45.942Z,98979.63
2023-03-21T18:28:29.873Z,98977.31
2023-03-21T18:32:34.435Z,98976.16
2023-03-21T18:33:50.494Z,98971.22
2023-03-21T18:36:25.221Z,98954.25
2023-03-21T18:38:53.116Z,98964.16
2023-03-21T18:41:21.110Z,98968.31
2023-03-21T18:44:12.981Z,98978.47
2023-03-21T18:46:47.111Z,98979.84
2023-03-21T18:50:14.175Z,98981.00
2023-03-21T18:52:43.997Z,98984.81
2023-03-21T18:55:12.023Z,98976.75
2023-03-21T18:57:40.642Z,98966.25
2023-03-21T19:00:13.860Z,98979.44
2023-03-21T19:02:46.902Z,98990.50
2023-03-21T19:05:16.341Z,98992.78
2023-03-21T19:07:43.276Z,98989.91
2023-03-21T19:10:19.669Z,98993.25
2023-03-21T19:12:52.493Z,98989.81
2023-03-21T19:15:21.910Z,98989.91
2023-03-21T19:20:38.197Z,98980.47
2023-03-21T19:23:08.229Z,98992.09
2023-03-21T19:25:36.882Z,98978.97
2023-03-21T19:28:05.052Z,98985.19
2023-03-21T19:30:32.099Z,98974.81
2023-03-21T19:32:59.151Z,98967.88
2023-03-21T19:35:26.096Z,98973.19
2023-03-21T19:37:53.268Z,98971.09
2023-03-21T19:40:20.538Z,98988.81
2023-03-21T19:42:47.634Z,98984.44
2023-03-21T19:45:14.773Z,98990.56
2023-03-21T19:47:42.218Z,98991.91
2023-03-21T19:52:57.048Z,98989.84
2023-03-21T19:55:24.776Z,98993.41
2023-03-21T19:57:53.631Z,98982.44
2023-03-21T20:00:22.400Z,98992.44
2023-03-21T20:02:50.781Z,98985.97
2023-03-21T20:05:20.515Z,98986.38
2023-03-21T20:07:47.370Z,98984.50
2023-03-21T20:10:14.312Z,98999.09
2023-03-21T20:12:41.356Z,98988.94
2023-03-21T20:15:17.293Z,98981.81
2023-03-21T20:17:46.585Z,98979.50
2023-03-21T20:20:15.159Z,98998.28
2023-03-21T20:23:05.733Z,98991.38
2023-03-21T20:25:30.234Z,98993.31
2023-03-21T20:28:14.449Z,98998.09
2023-03-21T20:30:51.249Z,98992.44
2023-03-21T20:33:18.760Z,98984.91
2023-03-21T20:36:35.614Z,98992.19
2023-03-21T20:38:34.450Z,98982.22
2023-03-21T20:41:03.182Z,98982.22
2023-03-21T20:46:18.400Z,98976.09
2023-03-21T20:48:48.889Z,98975.81
2023-03-21T20:54:03.657Z,98987.78
2023-03-21T20:56:30.747Z,98989.09
2023-03-21T20:59:14.634Z,99006.81
2023-03-21T21:01:45.551Z,99004.78
2023-03-21T21:04:15.084Z,99018.72
2023-03-21T21:06:42.191Z,99003.97
2023-03-21T21:09:09.396Z,99003.63
2023-03-21T21:14:24.166Z,99006.50
2023-03-21T21:16:52.668Z,98992.91
2023-03-21T21:19:21.771Z,99000.16
2023-03-21T21:21:48.687Z,99006.44
2023-03-21T21:24:15.654Z,99009.06
2023-03-21T21:26:46.338Z,99017.19
2023-03-21T21:29:16.871Z,99011.69
2023-03-21T21:31:49.821Z,99001.78
2023-03-21T21:34:18.711Z,99005.69
2023-03-21T21:36:45.964Z,99014.47
2023-03-21T21:39:15.664Z,99013.19
2023-03-21T21:41:43.197Z,99013.19
2023-03-21T21:44:10.989Z,99014.06
2023-03-21T21:46:38.161Z,99016.53
2023-03-21T21:49:05.294Z,99017.19
2023-03-21T21:51:34.093Z,99008.63
2023-03-21T21:54:03.632Z,98998.13
2023-03-21T21:56:32.608Z,98997.53
2023-03-21T21:59:03.384Z,99011.63
2023-03-21T22:01:31.487Z,99013.91
2023-03-21T22:04:06.160Z,99018.00
2023-03-21T22:06:36.160Z,99040.34
2023-03-21T22:09:06.997Z,99055.09
2023-03-21T22:11:34.165Z,99063.53
2023-03-21T22:14:01.161Z,99064.50
2023-03-21T22:16:28.266Z,99069.53
2023-03-21T22:18:55.299Z,99050.09
2023-03-21T22:21:22.204Z,99045.38
2023-03-21T22:23:49.071Z,99059.47
2023-03-21T22:26:16.302Z,99058.50
2023-03-21T22:28:43.717Z,99054.59
2023-03-21T22:31:13.826Z,99048.47
2023-03-21T22:33:41.032Z,99052.50
2023-03-21T22:36:08.353Z,99037.44
2023-03-21T22:38:38.244Z,99047.63
2023-03-21T22:41:06.438Z,99041.50
2023-03-21T22:43:34.481Z,99048.31
2023-03-21T22:46:03.023Z,99041.19
2023-03-21T22:48:30.911Z,99025.78
2023-03-21T22:50:59.123Z,99026.28
2023-03-21T22:53:26.687Z,99030.16
2023-03-21T22:55:53.624Z,99029.19
2023-03-21T22:58:20.918Z,99028.88
2023-03-21T23:00:47.886Z,99028.06
2023-03-21T23:03:16.770Z,99026.13
2023-03-21T23:05:45.205Z,99033.75
2023-03-21T23:08:13.002Z,99035.69
2023-03-21T23:10:43.446Z,99022.25
2023-03-21T23:13:10.743Z,99025.81
2023-03-21T23:15:41.200Z,99023.88
2023-03-21T23:18:08.190Z,99029.69
2023-03-21T23:20:35.989Z,99029.22
2023-03-21T23:23:02.991Z,99019.06
2023-03-21T23:25:30.429Z,99019.53
2023-03-21T23:27:57.426Z,99013.72
2023-03-21T23:30:24.447Z,99027.81
2023-03-21T23:32:51.716Z,99022.28
2023-03-21T23:35:18.666Z,99017.59
2023-03-21T23:37:52.436Z,98997.22
2023-03-21T23:40:20.482Z,99006.44
2023-03-21T23:42:47.576Z,99014.69
2023-03-21T23:45:14.484Z,99003.03
2023-03-21T23:47:41.500Z,99009.34
2023-03-21T23:50:10.005Z,99019.53
2023-03-21T23:52:37.916Z,99016.94
2023-03-21T23:55:05.796Z,99011.44
2023-03-21T23:57:32.959Z,98996.72
2023-03-21T23:59:59.979Z,98999.63
